Time,TemperatureF,DewpointF,PressureIn,WindDirection,WindDirectionDegrees,WindSpeedMPH,WindSpeedGustMPH,Humidity,HourlyPrecipIn,Conditions,Clouds,dailyrainin,SoftwareType,DateUTC
2013-03-22 00:12:00,26.8,15.2,29.39,WNW,292,2.2,-999.0,61,-99.99,,,0.00,Acu-Link.com,2013-03-22 04:12:00,
2013-03-22 00:27:00,26.4,15.2,29.39,NW,315,2.2,-999.0,62,-99.99,,,0.00,Acu-Link.com,2013-03-22 04:27:00,
2013-03-22 00:42:00,26.6,15.4,29.40,NW,315,5.8,-999.0,62,-99.99,,,0.00,Acu-Link.com,2013-03-22 04:42:00,
2013-03-22 00:58:00,26.6,15.7,29.39,WNW,292,4.7,-999.0,63,-99.99,,,0.00,Acu-Link.com,2013-03-22 04:58:00,
2013-03-22 01:13:00,27.0,16.4,29.39,West,270,4.3,-999.0,64,-99.99,,,0.00,Acu-Link.com,2013-03-22 05:13:00,
2013-03-22 01:28:00,26.6,16.4,29.40,NW,315,3.1,-999.0,65,-99.99,,,0.00,Acu-Link.com,2013-03-22 05:28:00,
2013-03-22 01:43:00,27.0,17.1,29.39,NNW,337,2.2,-999.0,66,-99.99,,,0.00,Acu-Link.com,2013-03-22 05:43:00,
2013-03-22 01:59:00,26.8,17.7,29.40,WNW,292,3.1,-999.0,68,-99.99,,,0.00,Acu-Link.com,2013-03-22 05:59:00,
2013-03-22 02:14:00,26.8,17.7,29.40,WNW,292,3.1,-999.0,68,-99.99,,,0.00,Acu-Link.com,2013-03-22 06:14:00,
2013-03-22 02:29:00,26.6,17.8,29.40,West,270,2.2,-999.0,69,-99.99,,,0.00,Acu-Link.com,2013-03-22 06:29:00,
2013-03-22 02:44:00,26.6,18.2,29.40,WNW,292,1.6,-999.0,70,-99.99,,,0.00,Acu-Link.com,2013-03-22 06:44:00,
2013-03-22 02:59:00,26.4,18.0,29.39,NW,315,4.3,-999.0,70,-99.99,,,0.00,Acu-Link.com,2013-03-22 06:59:00,
2013-03-22 03:14:00,26.4,18.0,29.39,NNW,337,4.7,-999.0,70,-99.99,,,0.00,Acu-Link.com,2013-03-22 07:14:00,
2013-03-22 03:30:00,26.4,18.0,29.39,WNW,292,2.7,-999.0,70,-99.99,,,0.00,Acu-Link.com,2013-03-22 07:30:00,
2013-03-22 03:45:00,25.9,18.1,29.39,NW,315,1.6,-999.0,72,-99.99,,,0.00,Acu-Link.com,2013-03-22 07:45:00,
2013-03-22 04:00:00,25.5,18.1,29.39,NNW,337,1.6,-999.0,73,-99.99,,,0.00,Acu-Link.com,2013-03-22 08:00:00,
2013-03-22 04:15:00,25.3,17.9,29.39,NW,315,3.8,-999.0,73,-99.99,,,0.00,Acu-Link.com,2013-03-22 08:15:00,
2013-03-22 04:30:00,25.0,17.6,29.39,NNE,22,3.8,-999.0,73,-99.99,,,0.00,Acu-Link.com,2013-03-22 08:30:00,
2013-03-22 04:45:00,25.0,17.3,29.39,West,270,1.1,-999.0,72,-99.99,,,0.00,Acu-Link.com,2013-03-22 08:45:00,
2013-03-22 05:01:00,24.8,17.1,29.39,NW,315,2.7,-999.0,72,-99.99,,,0.00,Acu-Link.com,2013-03-22 09:01:00,
2013-03-22 05:31:00,24.3,16.2,29.40,West,270,2.2,-999.0,71,-99.99,,,0.00,Acu-Link.com,2013-03-22 09:31:00,
2013-03-22 05:46:00,23.7,15.7,29.39,West,270,4.3,-999.0,71,-99.99,,,0.00,Acu-Link.com,2013-03-22 09:46:00,
2013-03-22 06:01:00,23.5,15.5,29.40,West,270,1.6,-999.0,71,-99.99,,,0.00,Acu-Link.com,2013-03-22 10:01:00,
2013-03-22 06:17:00,23.0,15.0,29.40,NNE,22,4.3,-999.0,71,-99.99,,,0.00,Acu-Link.com,2013-03-22 10:17:00,
2013-03-22 06:32:00,22.6,14.4,29.41,NW,315,2.2,-999.0,70,-99.99,,,0.00,Acu-Link.com,2013-03-22 10:32:00,
2013-03-22 06:47:00,22.5,13.9,29.41,NW,315,1.6,-999.0,69,-99.99,,,0.00,Acu-Link.com,2013-03-22 10:47:00,
2013-03-22 07:02:00,22.1,13.8,29.42,NW,315,3.1,-999.0,70,-99.99,,,0.00,Acu-Link.com,2013-03-22 11:02:00,
2013-03-22 07:18:00,22.1,13.8,29.42,NW,315,1.6,-999.0,70,-99.99,,,0.00,Acu-Link.com,2013-03-22 11:18:00,
2013-03-22 07:33:00,24.1,14.4,29.43,NNW,337,3.1,-999.0,66,-99.99,,,0.00,Acu-Link.com,2013-03-22 11:33:00,
2013-03-22 07:48:00,26.2,14.6,29.44,West,270,2.7,-999.0,61,-99.99,,,0.00,Acu-Link.com,2013-03-22 11:48:00,
2013-03-22 08:03:00,28.0,14.8,29.44,NNW,337,4.7,-999.0,57,-99.99,,,0.00,Acu-Link.com,2013-03-22 12:03:00,
2013-03-22 08:18:00,29.1,15.0,29.44,NW,315,2.7,-999.0,55,-99.99,,,0.00,Acu-Link.com,2013-03-22 12:18:00,
2013-03-22 08:34:00,30.0,15.0,29.45,West,270,5.1,-999.0,53,-99.99,,,0.00,Acu-Link.com,2013-03-22 12:34:00,
2013-03-22 08:49:00,29.7,15.1,29.44,WNW,292,2.7,-999.0,54,-99.99,,,0.00,Acu-Link.com,2013-03-22 12:49:00,
2013-03-22 09:04:00,31.3,15.7,29.44,WNW,292,2.2,-999.0,52,-99.99,,,0.00,Acu-Link.com,2013-03-22 13:04:00,
2013-03-22 09:19:00,30.7,15.7,29.45,NW,315,2.7,-999.0,53,-99.99,,,0.00,Acu-Link.com,2013-03-22 13:19:00,
2013-03-22 09:34:00,32.2,16.1,29.45,WNW,292,3.1,-999.0,51,-99.99,,,0.00,Acu-Link.com,2013-03-22 13:34:00,
2013-03-22 09:50:00,31.5,15.9,29.45,North,0,3.8,-999.0,52,-99.99,,,0.00,Acu-Link.com,2013-03-22 13:50:00,
2013-03-22 10:05:00,33.3,16.2,29.45,NNW,337,2.7,-999.0,49,-99.99,,,0.00,Acu-Link.com,2013-03-22 14:05:00,
2013-03-22 10:20:00,33.6,16.0,29.45,NNE,22,0.0,-999.0,48,-99.99,,,0.00,Acu-Link.com,2013-03-22 14:20:00,
2013-03-22 10:35:00,33.8,15.7,29.45,WNW,292,5.1,-999.0,47,-99.99,,,0.00,Acu-Link.com,2013-03-22 14:35:00,
2013-03-22 10:51:00,36.0,16.2,29.45,WNW,292,4.3,-999.0,44,-99.99,,,0.00,Acu-Link.com,2013-03-22 14:51:00,
2013-03-22 11:06:00,36.1,16.4,29.45,North,0,4.7,-999.0,44,-99.99,,,0.00,Acu-Link.com,2013-03-22 15:06:00,
2013-03-22 11:21:00,37.2,18.4,29.45,ESE,112,3.1,-999.0,46,-99.99,,,0.00,Acu-Link.com,2013-03-22 15:21:00,
2013-03-22 11:36:00,37.8,18.4,29.44,WNW,292,1.6,-999.0,45,-99.99,,,0.00,Acu-Link.com,2013-03-22 15:36:00,
2013-03-22 11:51:00,36.0,16.7,29.45,WSW,247,5.8,-999.0,45,-99.99,,,0.00,Acu-Link.com,2013-03-22 15:51:00,
2013-03-22 12:07:00,35.6,17.9,29.44,NW,315,2.7,-999.0,48,-99.99,,,0.00,Acu-Link.com,2013-03-22 16:07:00,
2013-03-22 12:22:00,36.9,17.0,29.44,NNW,337,4.3,-999.0,44,-99.99,,,0.00,Acu-Link.com,2013-03-22 16:22:00,
2013-03-22 12:37:00,38.3,17.8,29.44,North,0,3.8,-999.0,43,-99.99,,,0.00,Acu-Link.com,2013-03-22 16:37:00,
2013-03-22 12:52:00,37.8,18.4,29.44,West,270,6.3,-999.0,45,-99.99,,,0.00,Acu-Link.com,2013-03-22 16:52:00,
2013-03-22 13:07:00,38.8,17.7,29.44,WSW,247,4.3,-999.0,42,-99.99,,,0.00,Acu-Link.com,2013-03-22 17:07:00,
2013-03-22 13:22:00,38.7,18.1,29.43,NW,315,4.7,-999.0,43,-99.99,,,0.00,Acu-Link.com,2013-03-22 17:22:00,
2013-03-22 13:38:00,36.5,18.2,29.43,ENE,67,4.3,-999.0,47,-99.99,,,0.00,Acu-Link.com,2013-03-22 17:38:00,
2013-03-22 13:53:00,36.5,19.2,29.43,West,270,4.3,-999.0,49,-99.99,,,0.00,Acu-Link.com,2013-03-22 17:53:00,
2013-03-22 14:08:00,38.7,19.7,29.42,West,270,5.8,-999.0,46,-99.99,,,0.00,Acu-Link.com,2013-03-22 18:08:00,
2013-03-22 14:23:00,37.6,21.6,29.43,NE,45,3.8,-999.0,52,-99.99,,,0.00,Acu-Link.com,2013-03-22 18:23:00,
2013-03-22 14:39:00,39.0,17.9,29.42,WNW,292,2.2,-999.0,42,-99.99,,,0.00,Acu-Link.com,2013-03-22 18:39:00,
2013-03-22 14:54:00,39.9,17.6,29.41,NNE,22,6.3,-999.0,40,-99.99,,,0.00,Acu-Link.com,2013-03-22 18:54:00,
2013-03-22 15:09:00,40.5,17.5,29.41,NNW,337,11.0,-999.0,39,-99.99,,,0.00,Acu-Link.com,2013-03-22 19:09:00,
2013-03-22 15:24:00,39.4,18.8,29.42,WNW,292,3.1,-999.0,43,-99.99,,,0.00,Acu-Link.com,2013-03-22 19:24:00,
2013-03-22 15:39:00,39.9,19.3,29.42,North,0,5.1,-999.0,43,-99.99,,,0.00,Acu-Link.com,2013-03-22 19:39:00,
2013-03-22 15:55:00,37.8,18.4,29.41,WNW,292,6.7,-999.0,45,-99.99,,,0.00,Acu-Link.com,2013-03-22 19:55:00,
2013-03-22 16:10:00,38.7,18.6,29.41,WSW,247,6.7,-999.0,44,-99.99,,,0.00,Acu-Link.com,2013-03-22 20:10:00,
2013-03-22 16:25:00,37.9,19.5,29.42,ENE,67,6.7,-999.0,47,-99.99,,,0.00,Acu-Link.com,2013-03-22 20:25:00,
2013-03-22 16:40:00,38.5,20.0,29.42,NNW,337,2.7,-999.0,47,-99.99,,,0.00,Acu-Link.com,2013-03-22 20:40:00,
2013-03-22 16:55:00,37.8,20.3,29.42,WNW,292,3.8,-999.0,49,-99.99,,,0.00,Acu-Link.com,2013-03-22 20:55:00,
2013-03-22 17:11:00,38.1,20.2,29.43,WNW,292,6.3,-999.0,48,-99.99,,,0.00,Acu-Link.com,2013-03-22 21:11:00,
2013-03-22 17:56:00,36.0,20.1,29.44,SSE,157,3.1,-999.0,52,-99.99,,,0.00,Acu-Link.com,2013-03-22 21:56:00,
2013-03-22 18:12:00,35.2,20.7,29.45,NNW,337,1.6,-999.0,55,-99.99,,,0.00,Acu-Link.com,2013-03-22 22:12:00,
2013-03-22 18:27:00,35.1,20.5,29.45,NW,315,7.8,-999.0,55,-99.99,,,0.00,Acu-Link.com,2013-03-22 22:27:00,
2013-03-22 18:42:00,34.2,20.5,29.46,WNW,292,5.1,-999.0,57,-99.99,,,0.00,Acu-Link.com,2013-03-22 22:42:00,
2013-03-22 18:57:00,33.4,20.7,29.46,WNW,292,7.8,-999.0,59,-99.99,,,0.00,Acu-Link.com,2013-03-22 22:57:00,
2013-03-22 19:12:00,32.9,20.6,29.47,SE,135,4.3,-999.0,60,-99.99,,,0.00,Acu-Link.com,2013-03-22 23:12:00,
2013-03-22 19:28:00,32.5,20.6,29.47,West,270,4.3,-999.0,61,-99.99,,,0.00,Acu-Link.com,2013-03-22 23:28:00,
2013-03-22 19:43:00,32.2,20.6,29.47,North,0,1.6,-999.0,62,-99.99,,,0.00,Acu-Link.com,2013-03-22 23:43:00,
2013-03-22 19:58:00,31.3,20.5,29.48,NE,45,1.1,-999.0,64,-99.99,,,0.00,Acu-Link.com,2013-03-22 23:58:00,
2013-03-22 20:13:00,31.5,19.6,29.49,NNW,337,2.7,-999.0,61,-99.99,,,0.00,Acu-Link.com,2013-03-23 00:13:00,
2013-03-22 20:28:00,31.1,18.9,29.49,NW,315,2.2,-999.0,60,-99.99,,,0.00,Acu-Link.com,2013-03-23 00:28:00,
2013-03-22 20:44:00,30.7,18.5,29.49,NW,315,4.7,-999.0,60,-99.99,,,0.00,Acu-Link.com,2013-03-23 00:44:00,
2013-03-22 20:59:00,30.4,18.9,29.49,NW,315,3.8,-999.0,62,-99.99,,,0.00,Acu-Link.com,2013-03-23 00:59:00,
2013-03-22 21:14:00,30.0,18.6,29.50,NW,315,4.3,-999.0,62,-99.99,,,0.00,Acu-Link.com,2013-03-23 01:14:00,
2013-03-22 21:29:00,29.8,18.8,29.50,NW,315,7.8,-999.0,63,-99.99,,,0.00,Acu-Link.com,2013-03-23 01:29:00,
2013-03-22 21:45:00,29.5,18.8,29.50,ENE,67,2.7,-999.0,64,-99.99,,,0.00,Acu-Link.com,2013-03-23 01:45:00,
2013-03-22 22:00:00,29.1,18.8,29.50,WNW,292,2.7,-999.0,65,-99.99,,,0.00,Acu-Link.com,2013-03-23 02:00:00,
2013-03-22 22:15:00,28.8,18.9,29.50,WNW,292,3.8,-999.0,66,-99.99,,,0.00,Acu-Link.com,2013-03-23 02:15:00,
2013-03-22 22:30:00,28.4,18.5,29.51,WNW,292,2.2,-999.0,66,-99.99,,,0.00,Acu-Link.com,2013-03-23 02:30:00,
2013-03-22 22:45:00,27.9,18.7,29.50,NE,45,2.7,-999.0,68,-99.99,,,0.00,Acu-Link.com,2013-03-23 02:45:00,
2013-03-22 23:01:00,27.5,18.7,29.50,NW,315,1.6,-999.0,69,-99.99,,,0.00,Acu-Link.com,2013-03-23 03:01:00,
2013-03-22 23:31:00,27.5,19.0,29.51,West,270,3.1,-999.0,70,-99.99,,,0.00,Acu-Link.com,2013-03-23 03:31:00,
2013-03-22 23:46:00,27.3,19.2,29.51,SSW,202,2.2,-999.0,71,-99.99,,,0.00,Acu-Link.com,2013-03-23 03:46:00,